createdAt,value
2023-01-25T00:00:49.672Z,3.38
2023-01-25T00:06:02.358Z,2.91
2023-01-25T00:11:05.679Z,3.71
2023-01-25T00:16:18.360Z,3.47
2023-01-25T00:21:23.866Z,2.82
2023-01-25T00:26:26.676Z,3.15
2023-01-25T00:31:35.420Z,3.83
2023-01-25T00:36:38.259Z,3.84
2023-01-25T00:41:41.410Z,3.80
2023-01-25T00:46:44.083Z,2.94
2023-01-25T00:51:47.045Z,2.56
2023-01-25T00:56:50.236Z,1.96
2023-01-25T01:01:54.113Z,2.62
2023-01-25T01:07:06.799Z,3.58
2023-01-25T01:12:10.280Z,3.47
2023-01-25T01:17:12.821Z,2.52
2023-01-25T01:22:18.581Z,3.64
2023-01-25T01:27:21.485Z,3.25
2023-01-25T01:32:24.189Z,3.21
2023-01-25T01:37:30.933Z,3.77
2023-01-25T01:42:33.909Z,2.92
2023-01-25T01:47:46.931Z,2.43
2023-01-25T01:52:51.434Z,3.03
2023-01-25T01:57:59.144Z,3.04
2023-01-25T02:03:02.358Z,2.09
2023-01-25T02:08:08.955Z,3.23
2023-01-25T02:13:11.736Z,3.02
2023-01-25T02:18:15.433Z,3.23
2023-01-25T02:23:53.880Z,3.46
2023-01-25T02:29:02.994Z,3.16
2023-01-25T02:34:05.599Z,2.69
2023-01-25T02:39:19.080Z,3.04
2023-01-25T02:44:34.469Z,2.50
2023-01-25T02:49:38.084Z,2.14
2023-01-25T02:54:40.887Z,1.84
2023-01-25T02:59:51.269Z,3.43
2023-01-25T03:04:53.859Z,2.30
2023-01-25T03:10:07.075Z,2.54
2023-01-25T03:15:10.577Z,3.53
2023-01-25T03:20:13.523Z,2.92
2023-01-25T03:25:22.145Z,3.06
2023-01-25T03:30:24.858Z,2.70
2023-01-25T03:35:27.508Z,2.42
2023-01-25T03:40:30.547Z,2.09
2023-01-25T03:45:33.302Z,2.12
2023-01-25T03:50:35.892Z,2.19
2023-01-25T03:55:38.578Z,2.02
2023-01-25T04:00:41.264Z,1.91
2023-01-25T04:05:44.555Z,3.52
2023-01-25T04:10:53.032Z,3.46
2023-01-25T04:15:56.151Z,2.41
2023-01-25T04:20:59.056Z,3.36
2023-01-25T04:26:06.400Z,3.15
2023-01-25T04:31:08.992Z,1.68
2023-01-25T04:36:12.134Z,3.09
2023-01-25T04:41:14.682Z,2.65
2023-01-25T04:46:17.538Z,1.61
2023-01-25T04:51:20.176Z,2.81
2023-01-25T04:56:33.108Z,2.69
2023-01-25T05:01:35.699Z,2.72
2023-01-25T05:06:38.439Z,1.58
2023-01-25T05:11:41.182Z,2.73
2023-01-25T05:16:44.085Z,3.39
2023-01-25T05:21:58.722Z,2.54
2023-01-25T05:27:04.401Z,3.39
2023-01-25T05:32:09.642Z,3.57
2023-01-25T05:37:14.272Z,3.53
2023-01-25T05:42:19.999Z,2.48
2023-01-25T05:47:22.749Z,1.89
2023-01-25T05:52:25.595Z,2.58
2023-01-25T05:57:29.888Z,3.73
2023-01-25T06:02:33.610Z,3.94
2023-01-25T06:07:39.917Z,3.73
2023-01-25T06:12:42.693Z,3.64
2023-01-25T06:17:45.345Z,3.39
2023-01-25T06:22:57.900Z,3.88
2023-01-25T06:28:10.591Z,3.57
2023-01-25T06:33:13.099Z,1.93
2023-01-25T06:38:16.222Z,3.51
2023-01-25T06:43:18.749Z,3.95
2023-01-25T06:48:21.379Z,3.91
2023-01-25T06:53:26.078Z,3.62
2023-01-25T06:58:29.879Z,2.30
2023-01-25T07:03:33.369Z,2.95
2023-01-25T07:08:46.631Z,3.32
2023-01-25T07:13:49.796Z,3.88
2023-01-25T07:18:52.567Z,2.41
2023-01-25T07:24:01.655Z,4.05
2023-01-25T07:29:16.587Z,4.00
2023-01-25T07:34:19.539Z,3.97
2023-01-25T07:39:22.075Z,2.58
2023-01-25T07:44:24.630Z,3.15
2023-01-25T07:49:27.230Z,3.91
2023-01-25T07:54:29.968Z,2.85
2023-01-25T07:59:32.919Z,3.99
2023-01-25T08:04:35.423Z,4.23
2023-01-25T08:09:38.226Z,2.63
2023-01-25T08:14:41.003Z,4.41
2023-01-25T08:19:43.877Z,3.66
2023-01-25T08:24:47.089Z,4.29
2023-01-25T08:29:51.416Z,4.29
2023-01-25T08:34:54.367Z,4.18
2023-01-25T08:39:58.714Z,4.47
2023-01-25T08:45:03.531Z,4.60
2023-01-25T08:50:07.573Z,4.51
2023-01-25T08:55:30.409Z,4.13
2023-01-25T09:00:33.142Z,4.53
2023-01-25T09:05:36.585Z,3.90
2023-01-25T09:10:48.948Z,4.10
2023-01-25T09:15:51.594Z,5.00
2023-01-25T09:20:54.313Z,5.18
2023-01-25T09:25:59.549Z,5.17
2023-01-25T09:31:21.006Z,4.82
2023-01-25T09:36:24.859Z,4.56
2023-01-25T09:41:54.774Z,5.04
2023-01-25T09:47:25.623Z,4.93
2023-01-25T09:52:47.724Z,5.28
2023-01-25T09:57:54.830Z,4.59
2023-01-25T10:03:21.173Z,4.94
2023-01-25T10:08:40.061Z,4.81
2023-01-25T10:13:42.842Z,3.98
2023-01-25T10:18:48.381Z,5.02
2023-01-25T10:24:01.042Z,4.28
2023-01-25T10:29:21.484Z,4.47
2023-01-25T10:34:33.205Z,4.87
2023-01-25T10:40:05.126Z,4.84
2023-01-25T10:45:17.889Z,5.20
2023-01-25T10:50:47.292Z,4.43
2023-01-25T10:56:06.433Z,5.13
2023-01-25T11:01:13.867Z,3.58
2023-01-25T11:06:31.030Z,5.46
2023-01-25T11:11:43.745Z,4.57
2023-01-25T11:16:51.752Z,5.14
2023-01-25T11:21:55.965Z,5.18
2023-01-25T11:27:18.559Z,5.36
2023-01-25T11:32:23.435Z,5.01
2023-01-25T11:37:42.693Z,5.40
2023-01-25T11:43:07.815Z,5.46
2023-01-25T11:48:19.281Z,5.48
2023-01-25T11:54:10.274Z,5.51
2023-01-25T11:59:31.434Z,5.79
2023-01-25T12:05:21.038Z,5.25
2023-01-25T12:10:45.551Z,4.83
2023-01-25T12:15:50.990Z,5.48
2023-01-25T12:21:08.090Z,5.27
2023-01-25T12:26:34.450Z,5.36
2023-01-25T12:31:44.861Z,5.25
2023-01-25T12:37:00.461Z,5.25
2023-01-25T12:42:19.876Z,5.46
2023-01-25T12:47:47.590Z,5.25
2023-01-25T12:53:10.128Z,5.13
2023-01-25T12:58:40.171Z,5.21
2023-01-25T13:04:00.379Z,4.96
2023-01-25T13:09:22.198Z,5.16
2023-01-25T13:14:40.228Z,4.77
2023-01-25T13:19:43.965Z,5.03
2023-01-25T13:25:05.070Z,5.02
2023-01-25T13:30:17.069Z,4.97
2023-01-25T13:35:27.296Z,4.83
2023-01-25T13:40:39.181Z,5.07
2023-01-25T13:45:43.012Z,4.11
2023-01-25T13:51:18.874Z,4.49
2023-01-25T13:56:33.379Z,4.85
2023-01-25T14:01:37.837Z,4.20
2023-01-25T14:06:42.018Z,4.80
2023-01-25T14:11:53.805Z,4.30
2023-01-25T14:17:20.167Z,4.20
2023-01-25T14:22:28.148Z,2.65
2023-01-25T14:27:31.991Z,2.67
2023-01-25T14:32:34.828Z,2.25
2023-01-25T14:37:42.999Z,4.00
2023-01-25T14:42:45.887Z,3.33
2023-01-25T14:47:59.479Z,3.83
2023-01-25T14:53:23.308Z,3.11
2023-01-25T14:58:36.152Z,3.24
2023-01-25T15:03:45.598Z,3.22
2023-01-25T15:08:48.247Z,2.96
2023-01-25T15:14:03.468Z,3.55
2023-01-25T15:19:28.385Z,3.26
2023-01-25T15:24:31.494Z,3.25
2023-01-25T15:29:34.088Z,2.08
2023-01-25T15:34:36.640Z,3.32
2023-01-25T15:39:40.402Z,1.94
2023-01-25T15:44:43.961Z,3.60
2023-01-25T15:49:56.749Z,3.22
2023-01-25T15:55:01.780Z,1.67
2023-01-25T16:00:07.705Z,1.80
2023-01-25T16:05:10.872Z,2.87
2023-01-25T16:10:23.673Z,3.15
2023-01-25T16:15:26.473Z,2.46
2023-01-25T16:20:29.336Z,3.08
2023-01-25T16:25:32.147Z,2.20
2023-01-25T16:30:35.849Z,2.66
2023-01-25T16:35:38.521Z,2.21
2023-01-25T16:40:41.278Z,2.23
2023-01-25T16:45:43.937Z,1.47
2023-01-25T16:50:56.720Z,2.73
2023-01-25T16:56:00.056Z,2.94
2023-01-25T17:01:09.628Z,2.52
2023-01-25T17:06:20.628Z,2.90
2023-01-25T17:11:24.122Z,2.78
2023-01-25T17:16:29.586Z,2.88
2023-01-25T17:21:33.687Z,2.90
2023-01-25T17:26:36.644Z,1.24
2023-01-25T17:31:40.433Z,2.51
2023-01-25T17:36:44.869Z,1.39
2023-01-25T17:41:49.907Z,2.88
2023-01-25T17:46:54.032Z,2.93
2023-01-25T17:51:56.695Z,1.56
2023-01-25T17:56:59.213Z,2.51
2023-01-25T18:02:01.904Z,1.02
2023-01-25T18:07:04.737Z,1.18
2023-01-25T18:12:20.255Z,2.72
2023-01-25T18:17:29.873Z,0.76
2023-01-25T18:22:35.731Z,1.87
2023-01-25T18:27:38.668Z,2.47
2023-01-25T18:32:41.417Z,1.24
2023-01-25T18:37:46.848Z,1.38
2023-01-25T18:42:50.303Z,1.10
2023-01-25T18:47:56.036Z,2.35
2023-01-25T18:52:58.868Z,1.36
2023-01-25T18:58:05.305Z,1.71
2023-01-25T19:03:08.118Z,1.77
2023-01-25T19:08:10.736Z,1.41
2023-01-25T19:13:13.637Z,2.31
2023-01-25T19:18:16.940Z,2.07
2023-01-25T19:23:20.288Z,1.82
2023-01-25T19:28:35.558Z,2.36
2023-01-25T19:33:39.824Z,2.04
2023-01-25T19:38:44.462Z,2.24
2023-01-25T19:43:53.372Z,1.72
2023-01-25T19:48:57.462Z,1.92
2023-01-25T19:54:11.497Z,2.52
2023-01-25T19:59:18.329Z,2.67
2023-01-25T20:04:23.743Z,1.02
2023-01-25T20:09:28.760Z,2.63
2023-01-25T20:14:32.143Z,2.64
2023-01-25T20:19:37.937Z,2.59
2023-01-25T20:24:41.877Z,2.23
2023-01-25T20:29:50.164Z,1.67
2023-01-25T20:34:53.695Z,1.61
2023-01-25T20:39:57.543Z,1.50
2023-01-25T20:45:01.575Z,2.04
2023-01-25T20:50:05.169Z,0.44
2023-01-25T20:55:09.837Z,0.75
2023-01-25T21:00:15.165Z,1.56
2023-01-25T21:05:18.745Z,0.99
2023-01-25T21:10:26.532Z,1.60
2023-01-25T21:15:30.153Z,1.81
2023-01-25T21:20:33.630Z,1.58
2023-01-25T21:25:37.160Z,1.44
2023-01-25T21:30:40.908Z,1.78
2023-01-25T21:35:44.306Z,1.31
2023-01-25T21:40:48.424Z,0.86
2023-01-25T21:46:27.851Z,1.23
2023-01-25T21:51:36.979Z,1.50
2023-01-25T21:56:42.274Z,1.11
2023-01-25T22:01:46.308Z,0.95
2023-01-25T22:06:51.456Z,0.79
2023-01-25T22:11:54.924Z,1.69
2023-01-25T22:16:59.045Z,1.17
2023-01-25T22:22:02.774Z,1.76
2023-01-25T22:27:31.217Z,1.72
2023-01-25T22:32:35.130Z,1.77
2023-01-25T22:37:38.967Z,0.89
2023-01-25T22:42:42.310Z,1.70
2023-01-25T22:47:55.760Z,1.51
2023-01-25T22:52:59.096Z,1.01
2023-01-25T22:58:02.426Z,1.44
2023-01-25T23:03:06.169Z,0.16
2023-01-25T23:08:09.544Z,0.87
2023-01-25T23:13:13.485Z,1.06
2023-01-25T23:18:35.665Z,0.48
2023-01-25T23:23:50.312Z,1.68
2023-01-25T23:28:56.088Z,0.61
2023-01-25T23:34:01.928Z,1.38
2023-01-25T23:39:05.827Z,0.65
2023-01-25T23:44:19.334Z,0.81
2023-01-25T23:49:23.067Z,-0.16
2023-01-25T23:54:27.927Z,1.42
2023-01-25T23:59:31.299Z,1.29
